Terminal Aerodrome Forecast
Issued by NWS

Home | Current Version | Previous Version | Text Only | Print | Product List | Glossary On
Versions: 1 2 3 4 5 6 7 8 9 10 11 12 13 14 15 16 17
000
FTUS45 KPSR 031722
TAFBLH
TAF
KBLH 031722Z 0318/0418 09010KT P6SM BKN120 OVC250
     FM040300 21008KT P6SM SCT250
     FM040900 20012KT P6SM VCSH BKN100 BKN250
     FM041700 VRB04KT P6SM BKN100 OVC250=

USA.gov is the U.S. government's official web portal to all federal, state and local government web resources and services.